This is the latest recevied weather packets stored in our database for station/object KM5R. If no packets are shown the sender has not sent any weather packets the latest 1 day(s).
| Time | Temp. | Humidity | Pressure | Rain* | Wind** | Luminosity | Snow |
|---|---|---|---|---|---|---|---|
| 1778017490 | 32.22° C | 48% | 1006.4 hPa | 0 mm | 0.89 m/s, 87° | 505 W/m² | - |
| 1778017187 | 32.22° C | 49% | 1006.5 hPa | 0 mm | 1.34 m/s, 210° | 406 W/m² | - |
| 1778016885 | 31.67° C | 50% | 1006.5 hPa | 0 mm | 0.45 m/s, 123° | 352 W/m² | - |
| 1778016581 | 32.22° C | 50% | 1006.4 hPa | 0 mm | 0.45 m/s, 200° | 364 W/m² | - |
| 1778016278 | 31.67° C | 50% | 1006.2 hPa | 0 mm | 1.34 m/s, 254° | 374 W/m² | - |
| 1778015974 | 32.22° C | 49% | 1006.5 hPa | 0 mm | 3.13 m/s, 137° | 449 W/m² | - |
| 1778015672 | 32.22° C | 50% | 1006.6 hPa | 0 mm | 1.79 m/s, 107° | 517 W/m² | - |
| 1778015368 | 31.67° C | 51% | 1006.6 hPa | 0 mm | 1.79 m/s, 117° | 593 W/m² | - |
| 1778015065 | 31.67° C | 51% | 1007 hPa | 0 mm | 2.68 m/s, 108° | 624 W/m² | - |
| 1778014762 | 31.67° C | 51% | 1007.1 hPa | 0 mm | 1.79 m/s, 197° | 467 W/m² | - |
| 1778014461 | 31.67° C | 50% | 1007.2 hPa | 0 mm | 0.45 m/s, 70° | 464 W/m² | - |
| 1778014157 | 31.67° C | 49% | 1007.3 hPa | 0 mm | 2.24 m/s, 162° | 441 W/m² | - |
| 1778013855 | 31.67° C | 51% | 1007.2 hPa | 0 mm | 1.34 m/s, 77° | 582 W/m² | - |
| 1778013552 | 31.67° C | 49% | 1007.3 hPa | 0 mm | 1.79 m/s, 178° | 563 W/m² | - |
| 1778013248 | 31.67° C | 50% | 1007.2 hPa | 0 mm | 2.68 m/s, 150° | 412 W/m² | - |
| 1778012944 | 31.67° C | 50% | 1007.1 hPa | 0 mm | 0.89 m/s, 157° | 529 W/m² | - |
| 1778012641 | 31.67° C | 50% | 1007.2 hPa | 0 mm | 2.24 m/s, 129° | 574 W/m² | - |
| 1778012337 | 31.67° C | 51% | 1007.5 hPa | 0 mm | 1.34 m/s, 215° | 614 W/m² | - |
| 1778012034 | 31.67° C | 51% | 1007.6 hPa | 0 mm | 1.34 m/s, 196° | 510 W/m² | - |
| 1778011733 | 31.11° C | 51% | 1007.7 hPa | 0 mm | 0.45 m/s, 37° | 678 W/m² | - |
| 1778011429 | 31.11° C | 50% | 1007.8 hPa | 0 mm | 2.24 m/s, 253° | 689 W/m² | - |
| 1778011125 | 31.67° C | 51% | 1007.9 hPa | 0 mm | 2.68 m/s, 218° | 585 W/m² | - |
| 1778010822 | 31.11° C | 54% | 1007.9 hPa | 0 mm | 0.89 m/s, 258° | 674 W/m² | - |
| 1778010519 | 31.11° C | 53% | 1007.6 hPa | 0 mm | 3.13 m/s, 215° | 630 W/m² | - |
| 1778010217 | 31.11° C | 53% | 1007.8 hPa | 0 mm | 2.24 m/s, 151° | 716 W/m² | - |
* Rain latest hour (hover to see other rain measurements)
** Current wind speed in m/s (hover to see current wind gust speed)